Time;durP1;ratioP1;P1;durP2;ratioP2;P2;SDS_P1;SDS_P2;PMS_P1;PMS_P2;Temp;Humidity;BMP_temperature;BMP_pressure;BME280_temperature;BME280_humidity;BME280_pressure;Samples;Min_cycle;Max_cycle;Signal;HPM_P1;HPM_P2
2022/07/04 00:00:03;;;;;;;5.07;3.83;;;;;;;;;;5054277;28;20037;-65
2022/07/04 00:02:29;;;;;;;4.30;3.67;;;;;;;;;;5054343;28;20514;-65
2022/07/04 00:04:54;;;;;;;5.45;4.03;;;;;;;;;;5054521;28;20036;-65
2022/07/04 00:07:20;;;;;;;4.68;4.18;;;;;;;;;;5054583;28;20071;-64
2022/07/04 00:09:45;;;;;;;6.50;4.22;;;;;;;;;;5054411;28;20021;-66
2022/07/04 00:12:11;;;;;;;9.52;5.10;;;;;;;;;;5054028;28;20032;-66
2022/07/04 00:14:37;;;;;;;7.25;4.55;;;;;;;;;;5054464;28;20025;-66
2022/07/04 00:17:03;;;;;;;7.93;4.43;;;;;;;;;;5054209;28;20424;-65
2022/07/04 00:19:28;;;;;;;6.95;4.70;;;;;;;;;;5053969;28;20504;-65
2022/07/04 00:21:54;;;;;;;5.03;4.30;;;;;;;;;;5053978;28;20041;-66
2022/07/04 00:24:19;;;;;;;5.57;4.63;;;;;;;;;;5052911;28;20124;-66
2022/07/04 00:26:45;;;;;;;6.28;4.60;;;;;;;;;;5036284;28;20108;-63
2022/07/04 00:29:11;;;;;;;6.55;5.28;;;;;;;;;;5025570;28;20041;-62
2022/07/04 00:31:36;;;;;;;5.57;4.45;;;;;;;;;;5024905;28;20032;-63
2022/07/04 00:34:02;;;;;;;6.38;4.50;;;;;;;;;;5025451;28;20527;-63
2022/07/04 00:36:27;;;;;;;6.70;4.20;;;;;;;;;;5024362;28;20356;-64
2022/07/04 00:38:53;;;;;;;5.35;4.50;;;;;;;;;;5023461;28;20470;-64
2022/07/04 00:41:19;;;;;;;4.75;3.70;;;;;;;;;;5024649;28;20084;-60
2022/07/04 00:44:09;;;;;;;6.38;4.07;;;;;;;;;;5022476;28;20022;-60
2022/07/04 00:46:35;;;;;;;9.30;4.50;;;;;;;;;;5024594;28;20104;-61
2022/07/04 00:49:03;;;;;;;8.45;3.97;;;;;;;;;;5024662;28;20141;-60
2022/07/04 00:51:29;;;;;;;6.07;4.25;;;;;;;;;;5023103;28;20040;-60
2022/07/04 00:53:55;;;;;;;4.68;3.72;;;;;;;;;;5023256;28;20021;-61
2022/07/04 00:56:22;;;;;;;8.45;4.30;;;;;;;;;;5021709;28;20371;-68
2022/07/04 00:58:48;;;;;;;6.03;4.55;;;;;;;;;;5013865;28;20018;-69
2022/07/04 01:01:13;;;;;;;8.70;4.30;;;;;;;;;;5013862;28;20033;-66
2022/07/04 01:03:39;;;;;;;4.80;3.90;;;;;;;;;;5013971;28;20047;-69
2022/07/04 01:06:08;;;;;;;6.75;3.80;;;;;;;;;;5013734;28;20029;-67
2022/07/04 01:08:39;;;;;;;8.05;4.20;;;;;;;;;;5013869;28;20022;-68
2022/07/04 01:11:05;;;;;;;14.98;3.92;;;;;;;;;;5013674;28;20032;-67
2022/07/04 01:13:31;;;;;;;4.43;3.70;;;;;;;;;;5013532;28;20029;-68
2022/07/04 01:15:56;;;;;;;6.07;3.72;;;;;;;;;;5013770;28;20490;-68
2022/07/04 01:18:22;;;;;;;7.20;3.75;;;;;;;;;;5013666;28;20026;-68
2022/07/04 01:20:48;;;;;;;6.45;3.55;;;;;;;;;;5015292;28;20125;-68
2022/07/04 01:23:13;;;;;;;8.65;3.50;;;;;;;;;;5053147;28;20025;-66
2022/07/04 01:25:39;;;;;;;8.98;3.70;;;;;;;;;;5053133;28;20025;-67
2022/07/04 01:28:06;;;;;;;5.88;3.00;;;;;;;;;;5052995;28;20098;-68
2022/07/04 01:30:32;;;;;;;5.07;3.38;;;;;;;;;;5051860;28;20138;-68
2022/07/04 01:32:58;;;;;;;5.65;3.40;;;;;;;;;;5053149;28;20485;-65
2022/07/04 01:35:23;;;;;;;4.93;3.30;;;;;;;;;;5052961;28;20021;-61
2022/07/04 01:37:50;;;;;;;5.68;3.70;;;;;;;;;;5053088;28;20029;-61
2022/07/04 01:40:16;;;;;;;4.70;3.42;;;;;;;;;;5052917;28;20025;-61
2022/07/04 01:42:42;;;;;;;4.05;3.40;;;;;;;;;;5052669;28;20375;-61
2022/07/04 01:45:09;;;;;;;5.57;3.70;;;;;;;;;;5052889;28;20055;-62
2022/07/04 01:47:35;;;;;;;4.68;3.30;;;;;;;;;;5052915;28;20025;-62
2022/07/04 01:50:01;;;;;;;4.40;3.60;;;;;;;;;;5052687;28;20025;-62
2022/07/04 01:52:26;;;;;;;4.47;3.67;;;;;;;;;;5052750;28;20436;-69
2022/07/04 01:54:52;;;;;;;4.63;3.75;;;;;;;;;;5052793;28;20033;-68
2022/07/04 01:57:18;;;;;;;8.25;3.55;;;;;;;;;;5052527;28;20029;-67
2022/07/04 02:02:28;;;;;;;5.55;3.28;;;;;;;;;;5053099;28;20028;-69
2022/07/04 02:04:53;;;;;;;4.47;3.05;;;;;;;;;;5052618;28;20025;-68
2022/07/04 02:07:19;;;;;;;8.98;3.92;;;;;;;;;;5052624;28;20021;-67
2022/07/04 02:09:45;;;;;;;3.92;3.22;;;;;;;;;;5052508;28;20501;-68
2022/07/04 02:14:54;;;;;;;7.30;3.45;;;;;;;;;;5052527;28;20056;-68
2022/07/04 02:17:20;;;;;;;4.50;3.42;;;;;;;;;;5052419;28;20439;-68
2022/07/04 02:19:46;;;;;;;4.45;3.40;;;;;;;;;;5052311;28;20178;-65
2022/07/04 02:22:12;;;;;;;4.05;3.47;;;;;;;;;;5052202;28;20033;-69
2022/07/04 02:24:37;;;;;;;4.03;3.20;;;;;;;;;;5052575;28;20402;-69
2022/07/04 02:27:03;;;;;;;4.30;3.60;;;;;;;;;;5052235;28;20120;-65
2022/07/04 02:29:28;;;;;;;5.80;3.85;;;;;;;;;;5052363;28;20032;-68
2022/07/04 02:31:54;;;;;;;6.40;3.88;;;;;;;;;;5052341;28;20021;-69
2022/07/04 02:34:20;;;;;;;5.43;3.75;;;;;;;;;;5052229;28;20116;-68
2022/07/04 02:36:45;;;;;;;8.02;4.22;;;;;;;;;;5052386;28;20033;-69
2022/07/04 02:39:11;;;;;;;8.15;4.82;;;;;;;;;;5052376;28;20025;-67
2022/07/04 02:41:37;;;;;;;7.88;5.22;;;;;;;;;;5052095;28;20087;-68
2022/07/04 02:44:02;;;;;;;7.90;5.53;;;;;;;;;;5052272;28;20031;-67
2022/07/04 02:46:28;;;;;;;6.47;5.03;;;;;;;;;;5052244;28;20556;-66
2022/07/04 02:48:54;;;;;;;6.13;4.80;;;;;;;;;;5052121;28;20079;-67
2022/07/04 02:51:19;;;;;;;6.70;4.57;;;;;;;;;;5052173;28;20021;-65
2022/07/04 02:53:45;;;;;;;7.53;4.70;;;;;;;;;;5052141;28;20474;-68
2022/07/04 02:56:10;;;;;;;8.07;4.45;;;;;;;;;;5052073;28;20099;-64
2022/07/04 02:58:36;;;;;;;6.45;4.07;;;;;;;;;;5052030;28;20052;-63
2022/07/04 03:01:01;;;;;;;6.72;4.38;;;;;;;;;;5053988;28;20108;-67
2022/07/04 03:03:27;;;;;;;7.82;3.80;;;;;;;;;;5055987;28;20101;-69
2022/07/04 03:05:53;;;;;;;7.70;3.95;;;;;;;;;;5055896;28;20059;-69
2022/07/04 03:08:19;;;;;;;7.65;4.82;;;;;;;;;;5055740;28;20058;-69
2022/07/04 03:10:45;;;;;;;5.93;4.25;;;;;;;;;;5055500;28;20029;-67
2022/07/04 03:13:10;;;;;;;8.27;4.82;;;;;;;;;;5055795;28;20039;-68
2022/07/04 03:15:36;;;;;;;6.05;4.78;;;;;;;;;;5055640;28;20025;-69
2022/07/04 03:18:01;;;;;;;9.18;4.28;;;;;;;;;;5055590;28;20028;-68
2022/07/04 03:20:27;;;;;;;7.07;4.32;;;;;;;;;;5054958;28;20052;-69
2022/07/04 03:22:54;;;;;;;9.00;4.15;;;;;;;;;;5055166;28;20043;-69
2022/07/04 03:25:20;;;;;;;5.95;4.00;;;;;;;;;;5055301;28;20029;-69
2022/07/04 03:27:46;;;;;;;5.82;4.80;;;;;;;;;;5055480;28;20021;-69
2022/07/04 03:30:12;;;;;;;6.53;3.95;;;;;;;;;;5055254;28;20035;-67
2022/07/04 03:32:37;;;;;;;5.88;5.25;;;;;;;;;;5055137;28;20449;-69
2022/07/04 03:35:03;;;;;;;8.98;6.32;;;;;;;;;;5055209;28;20100;-68
2022/07/04 03:37:29;;;;;;;7.25;6.55;;;;;;;;;;5054945;28;20025;-69
2022/07/04 03:39:54;;;;;;;8.23;6.82;;;;;;;;;;5054900;28;20470;-66
2022/07/04 03:42:20;;;;;;;7.45;6.65;;;;;;;;;;5055178;28;20044;-68
2022/07/04 03:44:45;;;;;;;9.40;6.32;;;;;;;;;;5055030;28;20033;-69
2022/07/04 03:47:11;;;;;;;10.00;6.43;;;;;;;;;;5055139;28;20071;-68
2022/07/04 03:49:37;;;;;;;7.00;6.18;;;;;;;;;;5054915;28;20485;-69
2022/07/04 03:52:02;;;;;;;8.57;5.78;;;;;;;;;;5054934;28;20493;-68
2022/07/04 03:54:28;;;;;;;8.43;6.45;;;;;;;;;;5054686;28;20037;-65
2022/07/04 03:56:54;;;;;;;7.32;6.32;;;;;;;;;;5054776;28;20516;-69
2022/07/04 03:59:20;;;;;;;8.27;6.43;;;;;;;;;;5054797;28;20112;-69
2022/07/04 04:01:45;;;;;;;10.95;6.50;;;;;;;;;;5054725;28;20466;-66
2022/07/04 04:06:55;;;;;;;7.50;5.30;;;;;;;;;;5054763;28;20492;-66
2022/07/04 04:09:20;;;;;;;9.13;5.70;;;;;;;;;;5054286;28;20021;-65
2022/07/04 04:11:46;;;;;;;9.23;5.15;;;;;;;;;;5053514;28;20367;-68
2022/07/04 04:14:12;;;;;;;6.15;4.40;;;;;;;;;;5054276;28;20032;-66
2022/07/04 04:16:38;;;;;;;6.40;4.20;;;;;;;;;;5054411;28;20075;-68
2022/07/04 04:19:04;;;;;;;5.45;4.50;;;;;;;;;;5054133;28;20074;-68
2022/07/04 04:21:30;;;;;;;7.63;4.50;;;;;;;;;;5054197;28;20466;-68
2022/07/04 04:23:55;;;;;;;7.32;4.45;;;;;;;;;;5054093;28;20090;-68
2022/07/04 04:26:21;;;;;;;8.63;4.78;;;;;;;;;;5054341;28;20112;-69
2022/07/04 04:28:47;;;;;;;6.22;4.55;;;;;;;;;;5054031;28;20024;-69
2022/07/04 04:31:14;;;;;;;6.78;4.97;;;;;;;;;;5054225;28;20489;-69
2022/07/04 04:33:40;;;;;;;6.47;4.60;;;;;;;;;;5053971;28;20037;-64
2022/07/04 04:36:07;;;;;;;5.72;4.35;;;;;;;;;;5054062;28;20072;-67
2022/07/04 04:38:32;;;;;;;6.18;4.63;;;;;;;;;;5053796;28;20061;-69
2022/07/04 04:40:58;;;;;;;7.00;4.85;;;;;;;;;;5054203;28;20029;-66
2022/07/04 04:43:23;;;;;;;6.07;4.40;;;;;;;;;;5054043;28;20071;-69
2022/07/04 04:45:49;;;;;;;6.53;5.25;;;;;;;;;;5053890;28;20017;-68
2022/07/04 04:48:14;;;;;;;7.13;4.93;;;;;;;;;;5053795;28;20025;-68
2022/07/04 04:50:40;;;;;;;6.10;4.78;;;;;;;;;;5053678;28;20035;-69
2022/07/04 04:53:06;;;;;;;9.63;5.72;;;;;;;;;;5053502;28;20090;-67
2022/07/04 04:55:31;;;;;;;7.25;4.78;;;;;;;;;;5053723;28;20025;-68
2022/07/04 04:57:57;;;;;;;5.15;4.10;;;;;;;;;;5053317;28;20533;-65
2022/07/04 05:00:22;;;;;;;7.88;3.75;;;;;;;;;;5053487;28;20036;-65
2022/07/04 05:02:48;;;;;;;6.72;3.55;;;;;;;;;;5053479;28;20409;-67
2022/07/04 05:05:13;;;;;;;4.28;3.35;;;;;;;;;;5053282;28;20021;-62
2022/07/04 05:07:39;;;;;;;6.60;3.88;;;;;;;;;;5053359;28;20025;-65
2022/07/04 05:10:05;;;;;;;6.85;3.58;;;;;;;;;;5053373;28;20029;-64
2022/07/04 05:12:31;;;;;;;4.70;3.60;;;;;;;;;;5053293;28;20024;-68
2022/07/04 05:14:56;;;;;;;4.00;3.60;;;;;;;;;;5053401;28;20458;-65
2022/07/04 05:17:22;;;;;;;7.18;4.70;;;;;;;;;;5053224;28;20020;-62
2022/07/04 05:19:48;;;;;;;6.13;5.03;;;;;;;;;;5052867;28;20048;-66
2022/07/04 05:22:14;;;;;;;8.70;5.82;;;;;;;;;;5052777;28;20040;-66
2022/07/04 05:24:40;;;;;;;8.07;5.50;;;;;;;;;;5052901;28;20035;-67
2022/07/04 05:27:09;;;;;;;7.07;5.57;;;;;;;;;;5053342;28;20111;-66
2022/07/04 05:29:35;;;;;;;8.00;5.75;;;;;;;;;;5052949;28;20107;-69
2022/07/04 05:32:00;;;;;;;7.57;5.05;;;;;;;;;;5052908;28;20450;-65
2022/07/04 05:34:26;;;;;;;9.20;5.63;;;;;;;;;;5052706;28;20044;-68
2022/07/04 05:36:51;;;;;;;13.07;6.10;;;;;;;;;;5052957;28;20057;-69
2022/07/04 05:39:17;;;;;;;9.50;7.03;;;;;;;;;;5052927;28;20419;-69
2022/07/04 05:41:42;;;;;;;8.82;6.65;;;;;;;;;;5052882;28;20108;-68
2022/07/04 05:44:08;;;;;;;15.80;6.32;;;;;;;;;;5052813;28;20041;-67
2022/07/04 05:46:34;;;;;;;8.68;6.45;;;;;;;;;;5052586;28;20028;-64
2022/07/04 05:48:59;;;;;;;7.55;6.25;;;;;;;;;;5052608;28;20036;-68
2022/07/04 05:51:25;;;;;;;8.75;6.78;;;;;;;;;;5052666;28;20023;-66
2022/07/04 05:53:51;;;;;;;9.98;6.53;;;;;;;;;;5052658;28;20162;-67
2022/07/04 05:56:16;;;;;;;8.88;6.30;;;;;;;;;;5052764;28;20098;-69
2022/07/04 05:58:42;;;;;;;9.00;6.97;;;;;;;;;;5052460;28;20021;-60
2022/07/04 06:01:08;;;;;;;11.38;6.50;;;;;;;;;;5052603;28;20035;-60
2022/07/04 06:03:39;;;;;;;11.07;7.07;;;;;;;;;;5052429;28;20025;-61
2022/07/04 06:06:05;;;;;;;9.35;6.80;;;;;;;;;;5052982;28;20448;-61
2022/07/04 06:08:31;;;;;;;8.88;6.50;;;;;;;;;;5052514;28;20112;-66
2022/07/04 06:10:57;;;;;;;7.82;6.00;;;;;;;;;;5052353;28;20024;-65
2022/07/04 06:13:22;;;;;;;6.68;5.93;;;;;;;;;;5052477;28;20391;-63
2022/07/04 06:15:48;;;;;;;9.15;6.45;;;;;;;;;;5052478;28;20044;-63
2022/07/04 06:18:14;;;;;;;9.15;5.35;;;;;;;;;;5052200;28;20088;-67
2022/07/04 06:20:40;;;;;;;13.32;5.95;;;;;;;;;;5052200;28;20123;-67
2022/07/04 06:23:06;;;;;;;9.73;4.80;;;;;;;;;;5052447;28;20112;-66
2022/07/04 06:25:32;;;;;;;9.55;4.50;;;;;;;;;;5052504;28;20025;-67
2022/07/04 06:27:58;;;;;;;8.52;4.32;;;;;;;;;;5052269;28;20029;-67
2022/07/04 06:30:24;;;;;;;5.93;3.75;;;;;;;;;;5052207;28;20029;-66
2022/07/04 06:32:52;;;;;;;6.53;3.88;;;;;;;;;;5052032;28;20029;-64
2022/07/04 06:35:45;;;;;;;6.53;3.63;;;;;;;;;;5053100;28;20074;-67
2022/07/04 06:38:25;;;;;;;7.32;3.78;;;;;;;;;;5056588;28;20423;-60
2022/07/04 06:40:54;;;;;;;;;;;;;;;;;;5056657;28;20024;-61
2022/07/04 06:43:20;;;;;;;5.15;3.15;;;;;;;;;;5056189;28;20285;-60
2022/07/04 06:45:45;;;;;;;6.07;3.15;;;;;;;;;;5056139;28;20021;-67
2022/07/04 06:48:11;;;;;;;4.90;2.70;;;;;;;;;;5055618;28;20476;-69
2022/07/04 06:50:37;;;;;;;6.20;2.90;;;;;;;;;;5055945;28;20025;-69
2022/07/04 06:53:04;;;;;;;6.65;3.13;;;;;;;;;;5056066;28;20112;-68
2022/07/04 06:55:34;;;;;;;4.80;2.67;;;;;;;;;;5055996;28;20025;-67
2022/07/04 06:58:00;;;;;;;3.45;2.05;;;;;;;;;;5056030;28;20047;-68
2022/07/04 07:00:26;;;;;;;6.65;1.80;;;;;;;;;;5055876;28;20028;-68
2022/07/04 07:02:51;;;;;;;5.13;2.00;;;;;;;;;;5032192;28;20032;-69
2022/07/04 07:05:17;;;;;;;4.85;2.15;;;;;;;;;;5035399;28;20033;-64
2022/07/04 07:07:42;;;;;;;2.95;1.92;;;;;;;;;;5015397;28;20080;-68
2022/07/04 07:10:08;;;;;;;3.38;1.70;;;;;;;;;;5015462;28;20416;-66
2022/07/04 07:12:34;;;;;;;5.43;1.88;;;;;;;;;;5015514;28;20029;-69
2022/07/04 07:15:00;;;;;;;4.80;1.60;;;;;;;;;;5015588;28;20029;-66
2022/07/04 07:17:26;;;;;;;2.20;1.50;;;;;;;;;;5015582;28;20447;-68
2022/07/04 07:19:52;;;;;;;8.48;2.20;;;;;;;;;;5015479;28;20061;-70
2022/07/04 07:22:18;;;;;;;9.48;3.20;;;;;;;;;;5041936;28;20119;-70
2022/07/04 07:24:44;;;;;;;9.45;2.60;;;;;;;;;;5054966;28;20576;-67
2022/07/04 07:27:10;;;;;;;4.72;2.13;;;;;;;;;;5054936;28;20111;-67
2022/07/04 07:29:36;;;;;;;5.60;1.70;;;;;;;;;;5048789;28;20110;-68
2022/07/04 07:32:03;;;;;;;5.05;1.80;;;;;;;;;;5036400;28;20029;-68
2022/07/04 07:34:28;;;;;;;6.82;1.63;;;;;;;;;;5034935;28;20048;-69
2022/07/04 07:36:54;;;;;;;4.65;1.90;;;;;;;;;;5034850;28;20463;-62
2022/07/04 07:39:19;;;;;;;3.17;1.70;;;;;;;;;;5034853;28;20030;-69
2022/07/04 07:41:45;;;;;;;3.42;1.63;;;;;;;;;;5034919;28;20041;-68
2022/07/04 07:44:11;;;;;;;4.93;1.60;;;;;;;;;;5034907;28;20025;-70
2022/07/04 07:46:37;;;;;;;7.70;1.45;;;;;;;;;;5037482;28;20045;-68
2022/07/04 07:49:03;;;;;;;4.70;1.20;;;;;;;;;;5036290;28;20037;-64
2022/07/04 07:51:29;;;;;;;4.63;1.38;;;;;;;;;;5034726;28;20026;-69
2022/07/04 07:53:55;;;;;;;3.97;1.40;;;;;;;;;;5034357;28;20075;-68
2022/07/04 07:56:22;;;;;;;2.75;1.30;;;;;;;;;;5034544;28;20053;-69
2022/07/04 07:58:47;;;;;;;4.78;1.50;;;;;;;;;;5034308;28;20073;-67
2022/07/04 08:01:12;;;;;;;6.00;1.58;;;;;;;;;;5034376;28;20053;-69
2022/07/04 08:06:22;;;;;;;3.67;1.48;;;;;;;;;;5034523;28;20117;-69
2022/07/04 08:08:48;;;;;;;2.75;0.95;;;;;;;;;;5034058;28;20112;-66
2022/07/04 08:11:13;;;;;;;3.33;1.20;;;;;;;;;;5034301;28;20100;-66
2022/07/04 08:13:40;;;;;;;3.22;1.10;;;;;;;;;;5034097;28;20033;-67
2022/07/04 08:16:06;;;;;;;4.40;1.20;;;;;;;;;;5033991;28;20022;-67
2022/07/04 08:18:32;;;;;;;5.55;1.27;;;;;;;;;;5034140;28;20025;-66
2022/07/04 08:20:59;;;;;;;6.43;1.35;;;;;;;;;;5035317;28;20556;-64
2022/07/04 08:23:25;;;;;;;2.22;1.00;;;;;;;;;;5034249;28;20076;-66
2022/07/04 08:25:51;;;;;;;1.17;0.90;;;;;;;;;;5033854;28;20026;-66
2022/07/04 08:28:17;;;;;;;3.50;1.10;;;;;;;;;;5033612;28;20025;-60
2022/07/04 08:30:42;;;;;;;2.75;0.90;;;;;;;;;;5033635;28;20363;-67
2022/07/04 08:33:08;;;;;;;6.90;1.40;;;;;;;;;;5033627;28;20029;-64
2022/07/04 08:35:33;;;;;;;3.25;1.17;;;;;;;;;;5033848;28;20025;-65
2022/07/04 08:37:59;;;;;;;3.72;0.93;;;;;;;;;;5032953;28;20022;-65
2022/07/04 08:40:27;;;;;;;3.72;1.15;;;;;;;;;;5030737;28;20481;-65
2022/07/04 08:42:53;;;;;;;4.60;1.02;;;;;;;;;;5033354;28;20136;-66
2022/07/04 08:45:28;;;;;;;4.50;1.30;;;;;;;;;;5033439;28;20037;-66
2022/07/04 08:48:01;;;;;;;5.85;1.13;;;;;;;;;;5033223;28;20025;-65
2022/07/04 08:50:37;;;;;;;2.03;0.82;;;;;;;;;;5032777;28;20021;-65
2022/07/04 08:53:09;;;;;;;4.90;1.02;;;;;;;;;;5033399;28;20398;-61
2022/07/04 08:58:25;;;;;;;4.40;1.00;;;;;;;;;;5032628;28;20048;-62
2022/07/04 09:00:53;;;;;;;3.97;1.20;;;;;;;;;;5033299;28;20120;-63
2022/07/04 09:03:19;;;;;;;4.00;1.00;;;;;;;;;;5033259;28;20044;-66
2022/07/04 09:05:45;;;;;;;3.20;1.00;;;;;;;;;;5033368;28;20524;-67
2022/07/04 09:08:11;;;;;;;2.38;0.70;;;;;;;;;;5032921;28;20070;-63
2022/07/04 09:10:37;;;;;;;3.47;1.27;;;;;;;;;;5033243;28;20041;-67
2022/07/04 09:13:05;;;;;;;3.30;1.15;;;;;;;;;;5032749;28;20103;-64
2022/07/04 09:15:31;;;;;;;2.53;0.90;;;;;;;;;;5033040;28;20111;-67
2022/07/04 09:17:58;;;;;;;5.82;1.10;;;;;;;;;;5033052;28;20021;-67
2022/07/04 09:20:25;;;;;;;2.80;0.80;;;;;;;;;;5032772;28;20050;-63
2022/07/04 09:22:53;;;;;;;3.67;0.88;;;;;;;;;;5032531;28;20034;-63
2022/07/04 09:25:20;;;;;;;6.10;1.10;;;;;;;;;;5032848;28;20036;-65
2022/07/04 09:27:54;;;;;;;2.17;0.68;;;;;;;;;;5032837;28;20041;-60
2022/07/04 09:30:22;;;;;;;4.65;1.05;;;;;;;;;;5032891;28;20100;-62
2022/07/04 09:33:04;;;;;;;3.25;1.00;;;;;;;;;;5032565;28;20109;-61
2022/07/04 09:35:34;;;;;;;4.55;1.20;;;;;;;;;;5032808;28;20383;-65
2022/07/04 09:38:04;;;;;;;4.10;0.95;;;;;;;;;;5032649;28;20032;-64
2022/07/04 09:43:20;;;;;;;3.53;0.73;;;;;;;;;;5033035;28;20075;-68
2022/07/04 09:45:57;;;;;;;4.85;1.27;;;;;;;;;;5032784;28;20045;-67
2022/07/04 09:48:23;;;;;;;3.00;1.38;;;;;;;;;;5032610;28;20067;-69
2022/07/04 09:50:49;;;;;;;3.65;1.13;;;;;;;;;;5032330;28;20033;-63
2022/07/04 09:53:14;;;;;;;1.63;0.80;;;;;;;;;;5032480;28;20091;-69
2022/07/04 09:55:40;;;;;;;4.15;0.98;;;;;;;;;;5032277;28;20021;-68
2022/07/04 09:58:10;;;;;;;2.45;0.95;;;;;;;;;;5032481;28;20109;-66
2022/07/04 10:00:40;;;;;;;3.05;1.00;;;;;;;;;;5032533;28;20111;-68
2022/07/04 10:03:28;;;;;;;3.13;0.75;;;;;;;;;;5032352;28;20057;-67
2022/07/04 10:06:15;;;;;;;2.40;1.00;;;;;;;;;;5032370;28;20075;-69
2022/07/04 10:08:43;;;;;;;13.68;1.60;;;;;;;;;;5031911;28;20501;-64
2022/07/04 10:11:09;;;;;;;4.15;0.90;;;;;;;;;;5031242;28;20430;-62
2022/07/04 10:13:35;;;;;;;3.42;1.13;;;;;;;;;;5032100;28;20029;-65
2022/07/04 10:16:01;;;;;;;4.15;1.27;;;;;;;;;;5032267;28;20360;-65
2022/07/04 10:18:27;;;;;;;3.05;1.20;;;;;;;;;;5032181;28;20029;-60
2022/07/04 10:20:54;;;;;;;4.20;1.10;;;;;;;;;;5031643;28;20057;-62
2022/07/04 10:23:21;;;;;;;6.20;1.55;;;;;;;;;;5032055;28;20505;-66
2022/07/04 10:25:52;;;;;;;4.45;1.13;;;;;;;;;;5031873;28;20422;-63
2022/07/04 10:28:18;;;;;;;3.05;1.00;;;;;;;;;;5032061;28;20430;-66
2022/07/04 10:30:48;;;;;;;4.55;1.33;;;;;;;;;;5031782;28;20064;-66
2022/07/04 10:33:15;;;;;;;2.67;1.00;;;;;;;;;;5032185;28;20487;-63
2022/07/04 10:35:53;;;;;;;2.05;0.90;;;;;;;;;;5025451;28;20083;-67
2022/07/04 10:38:21;;;;;;;3.55;0.90;;;;;;;;;;5012247;28;20033;-67
2022/07/04 10:40:54;;;;;;;4.68;1.00;;;;;;;;;;5011695;28;20368;-63
2022/07/04 10:43:40;;;;;;;1.42;0.73;;;;;;;;;;5012022;28;20026;-66
2022/07/04 10:46:15;;;;;;;4.20;0.90;;;;;;;;;;5011832;28;20356;-67
2022/07/04 10:49:12;;;;;;;3.50;1.10;;;;;;;;;;5011975;28;20025;-63
2022/07/04 10:51:45;;;;;;;6.18;1.10;;;;;;;;;;5012346;28;20479;-66
2022/07/04 10:54:15;;;;;;;3.55;1.00;;;;;;;;;;5011977;28;20034;-67
2022/07/04 10:56:42;;;;;;;;;;;;;;;;;;5012601;28;20030;-68
2022/07/04 10:59:28;;;;;;;2.13;0.90;;;;;;;;;;5012177;28;20259;-66
2022/07/04 11:01:53;;;;;;;3.08;1.00;;;;;;;;;;5012001;28;20038;-68
2022/07/04 11:04:51;;;;;;;2.25;0.75;;;;;;;;;;5012223;28;20402;-70
2022/07/04 11:07:35;;;;;;;9.00;1.60;;;;;;;;;;4951330;28;20061;-67
2022/07/04 11:10:12;;;;;;;2.38;0.75;;;;;;;;;;4951529;29;20043;-68
2022/07/04 11:12:53;;;;;;;1.95;0.88;;;;;;;;;;4951393;29;20043;-68
2022/07/04 11:15:28;;;;;;;2.90;1.15;;;;;;;;;;4951489;29;20039;-66
2022/07/04 11:18:00;;;;;;;2.25;0.65;;;;;;;;;;4951398;29;20035;-60
2022/07/04 11:20:28;;;;;;;1.52;0.75;;;;;;;;;;4950921;29;20059;-66
2022/07/04 11:23:04;;;;;;;2.88;0.90;;;;;;;;;;4989087;28;20042;-67
2022/07/04 11:25:30;;;;;;;1.02;0.73;;;;;;;;;;4993504;28;20062;-68
2022/07/04 11:27:55;;;;;;;3.45;1.23;;;;;;;;;;4993323;28;20077;-67
2022/07/04 11:30:21;;;;;;;6.93;0.93;;;;;;;;;;4993166;28;20038;-67
2022/07/04 11:32:46;;;;;;;4.43;0.80;;;;;;;;;;4992913;28;20042;-67
2022/07/04 11:35:12;;;;;;;1.83;0.70;;;;;;;;;;4993431;28;20038;-66
2022/07/04 11:37:37;;;;;;;5.47;1.20;;;;;;;;;;4993151;28;20147;-64
2022/07/04 11:45:51;;;;;;;1.88;0.82;;;;;;;;;;5015024;28;20064;-67
2022/07/04 11:48:26;;;;;;;4.43;1.00;;;;;;;;;;5014736;28;20049;-66
2022/07/04 11:50:52;;;;;;;6.35;1.08;;;;;;;;;;5020651;28;20030;-60
2022/07/04 11:53:18;;;;;;;1.88;0.90;;;;;;;;;;5018901;28;20029;-68
2022/07/04 11:55:55;;;;;;;2.97;0.80;;;;;;;;;;5015090;28;20107;-67
2022/07/04 11:58:22;;;;;;;3.35;0.85;;;;;;;;;;5014867;28;20056;-67
2022/07/04 12:00:47;;;;;;;2.97;0.88;;;;;;;;;;5018854;28;20037;-67
2022/07/04 12:03:13;;;;;;;8.65;0.85;;;;;;;;;;5038821;28;20017;-68
2022/07/04 12:05:38;;;;;;;6.63;1.10;;;;;;;;;;5034814;28;20095;-66
2022/07/04 12:08:07;;;;;;;2.65;0.90;;;;;;;;;;5034061;28;20471;-66
2022/07/04 12:10:33;;;;;;;2.10;0.90;;;;;;;;;;5034214;28;20099;-68
2022/07/04 12:13:06;;;;;;;2.78;0.93;;;;;;;;;;5032917;28;20033;-70
2022/07/04 12:15:46;;;;;;;3.03;0.70;;;;;;;;;;5034466;28;20021;-70
2022/07/04 12:18:20;;;;;;;1.33;0.70;;;;;;;;;;5033431;28;20021;-64
2022/07/04 12:20:47;;;;;;;3.25;0.70;;;;;;;;;;5033995;28;20438;-67
2022/07/04 12:23:13;;;;;;;1.30;0.80;;;;;;;;;;5053592;28;20033;-60
2022/07/04 12:25:39;;;;;;;2.00;0.80;;;;;;;;;;5053897;28;20112;-67
2022/07/04 12:28:05;;;;;;;3.20;0.70;;;;;;;;;;5053882;28;20025;-70
2022/07/04 12:30:39;;;;;;;3.47;0.85;;;;;;;;;;5052600;28;20071;-67
2022/07/04 12:33:08;;;;;;;1.23;0.63;;;;;;;;;;5052775;28;20355;-60
2022/07/04 12:35:40;;;;;;;0.85;0.60;;;;;;;;;;5053308;28;20029;-67
2022/07/04 12:38:25;;;;;;;2.80;0.80;;;;;;;;;;5053639;28;20033;-66
2022/07/04 12:40:59;;;;;;;3.53;0.70;;;;;;;;;;5042500;28;20044;-67
2022/07/04 12:43:44;;;;;;;0.93;0.60;;;;;;;;;;5053853;28;20028;-68
2022/07/04 12:46:24;;;;;;;1.48;0.80;;;;;;;;;;5053618;28;20104;-66
2022/07/04 12:48:52;;;;;;;3.53;0.70;;;;;;;;;;5053431;28;20021;-66
2022/07/04 12:51:20;;;;;;;1.80;0.70;;;;;;;;;;5053039;28;20481;-67
2022/07/04 12:53:47;;;;;;;7.10;0.88;;;;;;;;;;5053503;28;20052;-67
2022/07/04 12:56:31;;;;;;;3.60;0.77;;;;;;;;;;5053394;28;20029;-67
2022/07/04 12:58:58;;;;;;;2.35;0.70;;;;;;;;;;5052996;28;20027;-67
2022/07/04 13:01:24;;;;;;;2.38;0.70;;;;;;;;;;5053142;28;20543;-70
2022/07/04 13:03:49;;;;;;;2.65;0.80;;;;;;;;;;5052718;28;20033;-67
2022/07/04 13:06:15;;;;;;;2.45;0.75;;;;;;;;;;5053081;28;20115;-65
2022/07/04 13:08:40;;;;;;;2.78;0.88;;;;;;;;;;5052837;28;20400;-66
2022/07/04 13:13:50;;;;;;;3.30;0.80;;;;;;;;;;5052911;28;20116;-64
2022/07/04 13:16:15;;;;;;;1.38;0.60;;;;;;;;;;5052955;28;20487;-68
2022/07/04 13:18:41;;;;;;;3.65;0.95;;;;;;;;;;5052448;28;20526;-66
2022/07/04 13:21:07;;;;;;;4.10;0.77;;;;;;;;;;5052706;28;20033;-67
2022/07/04 13:23:32;;;;;;;1.05;0.70;;;;;;;;;;5052872;28;20041;-68
2022/07/04 13:25:58;;;;;;;2.63;0.80;;;;;;;;;;5052795;28;20048;-67
2022/07/04 13:28:23;;;;;;;1.08;0.60;;;;;;;;;;5052681;28;20470;-66
2022/07/04 13:30:49;;;;;;;2.47;0.73;;;;;;;;;;5052697;28;20036;-66
2022/07/04 13:33:15;;;;;;;2.63;0.70;;;;;;;;;;5052403;28;20033;-67
2022/07/04 13:35:41;;;;;;;2.97;0.70;;;;;;;;;;5052805;28;20113;-63
2022/07/04 13:38:06;;;;;;;3.25;1.05;;;;;;;;;;5052653;28;20121;-63
2022/07/04 13:40:32;;;;;;;2.53;0.68;;;;;;;;;;5052482;28;20025;-67
2022/07/04 13:42:57;;;;;;;2.00;0.80;;;;;;;;;;5052506;28;20098;-66
2022/07/04 13:45:23;;;;;;;4.05;0.70;;;;;;;;;;5052324;28;20108;-63
2022/07/04 13:47:49;;;;;;;1.73;0.70;;;;;;;;;;5052138;28;20025;-64
2022/07/04 13:50:15;;;;;;;1.92;0.73;;;;;;;;;;5052423;28;20051;-66
2022/07/04 13:52:40;;;;;;;2.85;0.70;;;;;;;;;;5051993;28;20123;-66
2022/07/04 13:55:06;;;;;;;3.33;0.73;;;;;;;;;;5052353;28;20028;-64
2022/07/04 13:57:32;;;;;;;3.80;1.10;;;;;;;;;;5052232;28;20029;-66
2022/07/04 13:59:57;;;;;;;2.28;0.57;;;;;;;;;;5052327;28;20021;-62
2022/07/04 14:02:23;;;;;;;4.72;0.70;;;;;;;;;;5052062;28;20458;-61
2022/07/04 14:04:48;;;;;;;3.72;0.70;;;;;;;;;;5051999;28;20036;-62
2022/07/04 14:07:14;;;;;;;1.50;0.80;;;;;;;;;;5051985;28;20104;-65
2022/07/04 14:09:40;;;;;;;1.98;0.60;;;;;;;;;;5016122;28;20065;-65
2022/07/04 14:12:06;;;;;;;1.00;0.60;;;;;;;;;;5012508;28;20068;-66
2022/07/04 14:14:31;;;;;;;2.22;0.70;;;;;;;;;;5012321;28;20042;-61
2022/07/04 14:16:57;;;;;;;1.60;0.77;;;;;;;;;;5012122;28;20041;-65
2022/07/04 14:19:22;;;;;;;2.72;0.85;;;;;;;;;;5012348;28;20042;-61
2022/07/04 14:21:48;;;;;;;1.60;0.60;;;;;;;;;;5021514;28;20555;-61
2022/07/04 14:24:14;;;;;;;1.00;0.63;;;;;;;;;;5032125;28;20087;-62
2022/07/04 14:26:42;;;;;;;1.85;0.57;;;;;;;;;;5032025;28;20412;-64
2022/07/04 14:29:08;;;;;;;1.42;0.75;;;;;;;;;;5032115;28;20075;-66
2022/07/04 14:31:33;;;;;;;1.67;0.70;;;;;;;;;;5031930;28;20033;-66
2022/07/04 14:33:59;;;;;;;1.42;0.68;;;;;;;;;;5032090;28;20038;-64
2022/07/04 14:36:24;;;;;;;2.70;0.70;;;;;;;;;;5032153;28;20025;-65
2022/07/04 14:38:50;;;;;;;2.15;0.80;;;;;;;;;;5031892;28;20024;-67
2022/07/04 14:41:15;;;;;;;7.45;0.88;;;;;;;;;;5032262;28;20517;-62
2022/07/04 14:43:42;;;;;;;2.65;0.73;;;;;;;;;;5031868;28;20515;-63
2022/07/04 14:46:09;;;;;;;1.45;0.73;;;;;;;;;;5031708;28;20029;-64
2022/07/04 14:48:35;;;;;;;3.40;0.70;;;;;;;;;;5031831;28;20467;-63
2022/07/04 14:51:01;;;;;;;1.75;0.60;;;;;;;;;;5031897;28;20033;-62
2022/07/04 14:53:27;;;;;;;1.35;0.70;;;;;;;;;;5031637;28;20049;-67
2022/07/04 14:55:52;;;;;;;3.65;0.60;;;;;;;;;;5031956;28;20025;-68
2022/07/04 14:58:18;;;;;;;2.13;0.70;;;;;;;;;;5035619;28;20462;-63
2022/07/04 15:00:44;;;;;;;1.10;0.50;;;;;;;;;;5035167;28;20433;-68
2022/07/04 15:03:09;;;;;;;2.47;0.88;;;;;;;;;;5035774;28;20031;-62
2022/07/04 15:05:35;;;;;;;3.90;0.80;;;;;;;;;;5035650;28;20474;-62
2022/07/04 15:08:01;;;;;;;1.88;0.75;;;;;;;;;;5035101;28;20382;-63